sensor_id;sensor_type;location;lat;lon;timestamp;pressure;altitude;pressure_sealevel;temperature;humidity
15884;BME280;8040;50.254;10.960;2023-11-19T00:02:08;98049.75;;;7.85;87.75
15884;BME280;8040;50.254;10.960;2023-11-19T00:04:37;98009.25;;;7.62;87.38
15884;BME280;8040;50.254;10.960;2023-11-19T00:07:04;98037.00;;;7.67;87.60
15884;BME280;8040;50.254;10.960;2023-11-19T00:09:32;97999.59;;;7.56;88.19
15884;BME280;8040;50.254;10.960;2023-11-19T00:11:58;98052.22;;;7.82;88.90
15884;BME280;8040;50.254;10.960;2023-11-19T00:14:25;98060.97;;;7.97;88.53
15884;BME280;8040;50.254;10.960;2023-11-19T00:16:51;98053.63;;;8.03;88.61
15884;BME280;8040;50.254;10.960;2023-11-19T00:19:17;98020.00;;;7.67;88.78
15884;BME280;8040;50.254;10.960;2023-11-19T00:21:42;98062.81;;;8.02;88.66
15884;BME280;8040;50.254;10.960;2023-11-19T00:24:08;98097.16;;;8.25;88.13
15884;BME280;8040;50.254;10.960;2023-11-19T00:26:34;98050.47;;;7.96;88.07
15884;BME280;8040;50.254;10.960;2023-11-19T00:28:59;98028.69;;;7.87;88.19
15884;BME280;8040;50.254;10.960;2023-11-19T00:31:25;98031.84;;;7.94;88.48
15884;BME280;8040;50.254;10.960;2023-11-19T00:33:53;98032.13;;;7.93;87.91
15884;BME280;8040;50.254;10.960;2023-11-19T00:36:19;98036.88;;;8.01;88.21
15884;BME280;8040;50.254;10.960;2023-11-19T00:41:47;97998.22;;;7.82;88.09
15884;BME280;8040;50.254;10.960;2023-11-19T00:44:13;98002.03;;;7.81;88.27
15884;BME280;8040;50.254;10.960;2023-11-19T00:46:39;97996.22;;;7.69;88.61
15884;BME280;8040;50.254;10.960;2023-11-19T00:49:05;97998.81;;;7.79;88.85
15884;BME280;8040;50.254;10.960;2023-11-19T00:51:30;97968.06;;;7.75;88.80
15884;BME280;8040;50.254;10.960;2023-11-19T00:53:57;97950.47;;;7.59;88.73
15884;BME280;8040;50.254;10.960;2023-11-19T00:56:23;98003.53;;;7.92;88.51
15884;BME280;8040;50.254;10.960;2023-11-19T00:58:49;97999.72;;;7.93;88.77
15884;BME280;8040;50.254;10.960;2023-11-19T01:01:14;97986.91;;;7.80;88.77
15884;BME280;8040;50.254;10.960;2023-11-19T01:03:40;98006.00;;;7.88;89.03
15884;BME280;8040;50.254;10.960;2023-11-19T01:06:05;98066.91;;;8.23;89.11
15884;BME280;8040;50.254;10.960;2023-11-19T01:08:31;98010.47;;;7.98;89.10
15884;BME280;8040;50.254;10.960;2023-11-19T01:10:56;97967.56;;;7.73;89.26
15884;BME280;8040;50.254;10.960;2023-11-19T01:13:22;98044.00;;;8.15;89.66
15884;BME280;8040;50.254;10.960;2023-11-19T01:15:47;98002.56;;;7.83;89.55
15884;BME280;8040;50.254;10.960;2023-11-19T01:18:13;97983.66;;;7.83;89.63
15884;BME280;8040;50.254;10.960;2023-11-19T01:20:38;98034.94;;;8.06;89.35
15884;BME280;8040;50.254;10.960;2023-11-19T01:23:07;98004.94;;;7.84;89.59
15884;BME280;8040;50.254;10.960;2023-11-19T01:25:33;98031.66;;;8.09;89.98
15884;BME280;8040;50.254;10.960;2023-11-19T01:27:59;97967.91;;;7.90;90.11
15884;BME280;8040;50.254;10.960;2023-11-19T01:30:24;98014.50;;;8.24;89.65
15884;BME280;8040;50.254;10.960;2023-11-19T01:32:51;97988.16;;;8.11;89.60
15884;BME280;8040;50.254;10.960;2023-11-19T01:35:16;97958.94;;;7.94;89.48
15884;BME280;8040;50.254;10.960;2023-11-19T01:37:44;98020.88;;;8.33;89.82
15884;BME280;8040;50.254;10.960;2023-11-19T01:40:10;98009.31;;;8.27;90.08
15884;BME280;8040;50.254;10.960;2023-11-19T01:42:37;97995.06;;;8.22;89.81
15884;BME280;8040;50.254;10.960;2023-11-19T01:45:04;97986.50;;;8.15;89.75
15884;BME280;8040;50.254;10.960;2023-11-19T01:47:32;97955.41;;;7.94;89.69
15884;BME280;8040;50.254;10.960;2023-11-19T01:49:58;97963.13;;;8.05;89.66
15884;BME280;8040;50.254;10.960;2023-11-19T01:52:25;97972.44;;;8.13;89.98
15884;BME280;8040;50.254;10.960;2023-11-19T01:54:52;97994.34;;;8.35;89.98
15884;BME280;8040;50.254;10.960;2023-11-19T01:57:18;97919.94;;;7.82;90.89
15884;BME280;8040;50.254;10.960;2023-11-19T01:59:45;97930.03;;;7.95;90.47
15884;BME280;8040;50.254;10.960;2023-11-19T02:02:11;97949.56;;;8.10;90.52
15884;BME280;8040;50.254;10.960;2023-11-19T02:04:38;97939.81;;;8.09;90.88
15884;BME280;8040;50.254;10.960;2023-11-19T02:07:04;97983.41;;;8.45;90.39
15884;BME280;8040;50.254;10.960;2023-11-19T02:09:29;97923.16;;;8.02;90.70
15884;BME280;8040;50.254;10.960;2023-11-19T02:11:55;97895.78;;;7.90;90.78
15884;BME280;8040;50.254;10.960;2023-11-19T02:14:25;97968.59;;;8.42;90.21
15884;BME280;8040;50.254;10.960;2023-11-19T02:16:51;97890.53;;;7.99;89.82
15884;BME280;8040;50.254;10.960;2023-11-19T02:19:20;97908.50;;;8.08;89.54
15884;BME280;8040;50.254;10.960;2023-11-19T02:21:45;97904.91;;;8.13;90.37
15884;BME280;8040;50.254;10.960;2023-11-19T02:24:12;97917.81;;;8.21;90.83
15884;BME280;8040;50.254;10.960;2023-11-19T02:26:47;97919.94;;;8.24;90.34
15884;BME280;8040;50.254;10.960;2023-11-19T02:29:16;97887.00;;;8.22;90.45
15884;BME280;8040;50.254;10.960;2023-11-19T02:31:42;97873.78;;;8.20;90.19
15884;BME280;8040;50.254;10.960;2023-11-19T02:34:10;97896.84;;;8.31;90.60
15884;BME280;8040;50.254;10.960;2023-11-19T02:36:37;97865.22;;;8.13;90.42
15884;BME280;8040;50.254;10.960;2023-11-19T02:39:03;97835.16;;;8.01;90.52
15884;BME280;8040;50.254;10.960;2023-11-19T02:41:29;97889.91;;;8.44;90.18
15884;BME280;8040;50.254;10.960;2023-11-19T02:43:54;97858.38;;;8.21;90.49
15884;BME280;8040;50.254;10.960;2023-11-19T02:46:20;97828.28;;;8.09;90.61
15884;BME280;8040;50.254;10.960;2023-11-19T02:48:45;97865.25;;;8.32;90.58
15884;BME280;8040;50.254;10.960;2023-11-19T02:51:11;97914.59;;;8.56;90.57
15884;BME280;8040;50.254;10.960;2023-11-19T02:53:37;97885.16;;;8.36;90.07
15884;BME280;8040;50.254;10.960;2023-11-19T02:56:03;97872.75;;;8.35;90.14
15884;BME280;8040;50.254;10.960;2023-11-19T02:58:43;97859.50;;;8.20;89.44
15884;BME280;8040;50.254;10.960;2023-11-19T03:01:10;97849.72;;;8.19;89.25
15884;BME280;8040;50.254;10.960;2023-11-19T03:03:44;97863.78;;;8.21;90.33
15884;BME280;8040;50.254;10.960;2023-11-19T03:06:14;97851.44;;;8.15;90.03
15884;BME280;8040;50.254;10.960;2023-11-19T03:08:40;97793.38;;;7.94;90.19
15884;BME280;8040;50.254;10.960;2023-11-19T03:11:05;97838.13;;;8.18;90.10
15884;BME280;8040;50.254;10.960;2023-11-19T03:13:31;97852.31;;;8.29;90.46
15884;BME280;8040;50.254;10.960;2023-11-19T03:15:56;97786.91;;;7.95;90.11
15884;BME280;8040;50.254;10.960;2023-11-19T03:18:21;97821.81;;;8.28;89.99
15884;BME280;8040;50.254;10.960;2023-11-19T03:20:47;97801.09;;;8.19;90.53
15884;BME280;8040;50.254;10.960;2023-11-19T03:23:13;97765.53;;;7.98;90.62
15884;BME280;8040;50.254;10.960;2023-11-19T03:25:38;97825.63;;;8.41;91.05
15884;BME280;8040;50.254;10.960;2023-11-19T03:28:04;97764.66;;;8.03;91.18
15884;BME280;8040;50.254;10.960;2023-11-19T03:30:30;97803.44;;;8.44;91.28
15884;BME280;8040;50.254;10.960;2023-11-19T03:32:57;97766.47;;;8.26;90.63
15884;BME280;8040;50.254;10.960;2023-11-19T03:35:24;97753.53;;;8.23;90.95
15884;BME280;8040;50.254;10.960;2023-11-19T03:37:50;97805.25;;;8.48;91.23
15884;BME280;8040;50.254;10.960;2023-11-19T03:40:16;97780.97;;;8.30;90.86
15884;BME280;8040;50.254;10.960;2023-11-19T03:42:42;97841.41;;;8.66;90.75
15884;BME280;8040;50.254;10.960;2023-11-19T03:45:07;97775.56;;;8.30;90.82
15884;BME280;8040;50.254;10.960;2023-11-19T03:47:36;97793.34;;;8.49;89.89
15884;BME280;8040;50.254;10.960;2023-11-19T03:50:02;97792.84;;;8.47;90.32
15884;BME280;8040;50.254;10.960;2023-11-19T03:52:28;97775.06;;;8.28;89.92
15884;BME280;8040;50.254;10.960;2023-11-19T03:54:54;97826.06;;;8.48;89.64
15884;BME280;8040;50.254;10.960;2023-11-19T03:57:23;97777.38;;;8.34;90.20
15884;BME280;8040;50.254;10.960;2023-11-19T03:59:49;97812.66;;;8.56;90.22
15884;BME280;8040;50.254;10.960;2023-11-19T04:02:15;97763.66;;;8.31;90.03
15884;BME280;8040;50.254;10.960;2023-11-19T04:04:41;97799.63;;;8.45;90.13
15884;BME280;8040;50.254;10.960;2023-11-19T04:07:06;97795.00;;;8.45;90.70
15884;BME280;8040;50.254;10.960;2023-11-19T04:09:32;97825.59;;;8.59;90.42
15884;BME280;8040;50.254;10.960;2023-11-19T04:12:03;97784.94;;;8.51;90.38
15884;BME280;8040;50.254;10.960;2023-11-19T04:14:28;97818.59;;;8.72;90.90
15884;BME280;8040;50.254;10.960;2023-11-19T04:16:54;97771.41;;;8.51;90.94
15884;BME280;8040;50.254;10.960;2023-11-19T04:19:19;97798.78;;;8.63;90.14
15884;BME280;8040;50.254;10.960;2023-11-19T04:21:45;97816.31;;;8.79;90.84
15884;BME280;8040;50.254;10.960;2023-11-19T04:24:11;97740.34;;;8.35;90.44
15884;BME280;8040;50.254;10.960;2023-11-19T04:26:44;97799.09;;;8.75;90.21
15884;BME280;8040;50.254;10.960;2023-11-19T04:29:15;97797.09;;;8.80;90.51
15884;BME280;8040;50.254;10.960;2023-11-19T04:31:43;97758.44;;;8.66;90.44
15884;BME280;8040;50.254;10.960;2023-11-19T04:34:12;97773.66;;;8.76;91.11
15884;BME280;8040;50.254;10.960;2023-11-19T04:36:37;97728.34;;;8.41;90.36
15884;BME280;8040;50.254;10.960;2023-11-19T04:39:07;97782.25;;;8.78;90.77
15884;BME280;8040;50.254;10.960;2023-11-19T04:41:50;97777.88;;;8.82;91.10
15884;BME280;8040;50.254;10.960;2023-11-19T04:44:17;97755.31;;;8.73;91.05
15884;BME280;8040;50.254;10.960;2023-11-19T04:46:43;97724.94;;;8.49;90.63
15884;BME280;8040;50.254;10.960;2023-11-19T04:49:09;97735.28;;;8.60;91.52
15884;BME280;8040;50.254;10.960;2023-11-19T04:51:41;97755.94;;;8.70;90.93
15884;BME280;8040;50.254;10.960;2023-11-19T04:54:08;97783.38;;;8.90;91.07
15884;BME280;8040;50.254;10.960;2023-11-19T04:56:34;97713.06;;;8.50;90.61
15884;BME280;8040;50.254;10.960;2023-11-19T04:59:01;97725.38;;;8.56;90.79
15884;BME280;8040;50.254;10.960;2023-11-19T05:01:27;97757.94;;;8.78;91.27
15884;BME280;8040;50.254;10.960;2023-11-19T05:03:52;97746.31;;;8.77;90.82
15884;BME280;8040;50.254;10.960;2023-11-19T05:06:18;97708.34;;;8.55;91.14
15884;BME280;8040;50.254;10.960;2023-11-19T05:08:44;97766.84;;;8.92;91.20
15884;BME280;8040;50.254;10.960;2023-11-19T05:11:09;97758.41;;;8.80;91.62
15884;BME280;8040;50.254;10.960;2023-11-19T05:13:37;97727.78;;;8.71;91.80
15884;BME280;8040;50.254;10.960;2023-11-19T05:16:03;97740.31;;;8.94;91.70
15884;BME280;8040;50.254;10.960;2023-11-19T05:18:28;97735.59;;;8.86;91.45
15884;BME280;8040;50.254;10.960;2023-11-19T05:20:54;97692.25;;;8.64;91.59
15884;BME280;8040;50.254;10.960;2023-11-19T05:23:21;97747.50;;;8.98;91.80
15884;BME280;8040;50.254;10.960;2023-11-19T05:25:46;97704.16;;;8.63;91.35
15884;BME280;8040;50.254;10.960;2023-11-19T05:28:13;97713.97;;;8.72;91.75
15884;BME280;8040;50.254;10.960;2023-11-19T05:30:39;97712.78;;;8.78;91.83
15884;BME280;8040;50.254;10.960;2023-11-19T05:33:05;97712.88;;;8.73;91.60
15884;BME280;8040;50.254;10.960;2023-11-19T05:35:31;97715.78;;;8.77;91.45
15884;BME280;8040;50.254;10.960;2023-11-19T05:37:57;97731.19;;;8.90;92.00
15884;BME280;8040;50.254;10.960;2023-11-19T05:40:23;97708.34;;;8.82;91.92
15884;BME280;8040;50.254;10.960;2023-11-19T05:42:48;97694.84;;;8.69;91.85
15884;BME280;8040;50.254;10.960;2023-11-19T05:48:36;97717.19;;;8.88;91.58
15884;BME280;8040;50.254;10.960;2023-11-19T05:51:01;97668.31;;;8.71;91.53
15884;BME280;8040;50.254;10.960;2023-11-19T05:53:28;97737.19;;;9.14;92.09
15884;BME280;8040;50.254;10.960;2023-11-19T05:55:53;97746.81;;;9.20;91.94
15884;BME280;8040;50.254;10.960;2023-11-19T05:58:25;97680.72;;;8.72;91.88
15884;BME280;8040;50.254;10.960;2023-11-19T06:00:54;97707.34;;;8.92;92.40
15884;BME280;8040;50.254;10.960;2023-11-19T06:03:19;97700.22;;;8.82;92.05
15884;BME280;8040;50.254;10.960;2023-11-19T06:05:47;97736.69;;;9.12;91.64
15884;BME280;8040;50.254;10.960;2023-11-19T06:08:13;97730.56;;;9.06;92.25
15884;BME280;8040;50.254;10.960;2023-11-19T06:10:40;97721.16;;;9.04;92.16
15884;BME280;8040;50.254;10.960;2023-11-19T06:13:06;97702.94;;;8.96;92.11
15884;BME280;8040;50.254;10.960;2023-11-19T06:15:33;97758.22;;;9.30;91.83
15884;BME280;8040;50.254;10.960;2023-11-19T06:17:58;97722.66;;;9.10;91.82
15884;BME280;8040;50.254;10.960;2023-11-19T06:20:26;97738.88;;;9.23;91.83
15884;BME280;8040;50.254;10.960;2023-11-19T06:22:54;97731.06;;;9.22;91.99
15884;BME280;8040;50.254;10.960;2023-11-19T06:25:19;97707.44;;;9.00;91.74
15884;BME280;8040;50.254;10.960;2023-11-19T06:27:45;97733.75;;;9.22;91.94
15884;BME280;8040;50.254;10.960;2023-11-19T06:30:11;97733.16;;;9.25;92.13
15884;BME280;8040;50.254;10.960;2023-11-19T06:32:37;97737.56;;;9.21;92.51
15884;BME280;8040;50.254;10.960;2023-11-19T06:35:03;97706.13;;;9.11;92.07
15884;BME280;8040;50.254;10.960;2023-11-19T06:37:30;97701.53;;;9.12;92.34
15884;BME280;8040;50.254;10.960;2023-11-19T06:39:56;97741.69;;;9.32;92.61
15884;BME280;8040;50.254;10.960;2023-11-19T06:42:21;97738.47;;;9.30;92.45
15884;BME280;8040;50.254;10.960;2023-11-19T06:44:47;97722.34;;;9.25;92.68
15884;BME280;8040;50.254;10.960;2023-11-19T06:47:12;97689.91;;;8.98;92.79
15884;BME280;8040;50.254;10.960;2023-11-19T06:49:37;97657.16;;;8.86;92.89
15884;BME280;8040;50.254;10.960;2023-11-19T06:52:03;97731.44;;;9.29;92.78
15884;BME280;8040;50.254;10.960;2023-11-19T06:54:29;97757.72;;;9.42;92.84
15884;BME280;8040;50.254;10.960;2023-11-19T06:56:55;97719.84;;;9.28;93.03
15884;BME280;8040;50.254;10.960;2023-11-19T06:59:22;97743.56;;;9.45;93.23
15884;BME280;8040;50.254;10.960;2023-11-19T07:01:48;97732.34;;;9.38;93.08
15884;BME280;8040;50.254;10.960;2023-11-19T07:04:13;97744.94;;;9.56;93.41
15884;BME280;8040;50.254;10.960;2023-11-19T07:06:39;97708.28;;;9.36;92.93
15884;BME280;8040;50.254;10.960;2023-11-19T07:09:07;97732.81;;;9.40;92.89
15884;BME280;8040;50.254;10.960;2023-11-19T07:11:40;97708.53;;;9.26;93.50
15884;BME280;8040;50.254;10.960;2023-11-19T07:14:09;97695.66;;;9.32;93.22
15884;BME280;8040;50.254;10.960;2023-11-19T07:16:35;97735.69;;;9.57;92.84
15884;BME280;8040;50.254;10.960;2023-11-19T07:19:03;97756.34;;;9.66;93.80
15884;BME280;8040;50.254;10.960;2023-11-19T07:21:28;97746.50;;;9.70;93.33
15884;BME280;8040;50.254;10.960;2023-11-19T07:23:54;97708.84;;;9.47;92.87
15884;BME280;8040;50.254;10.960;2023-11-19T07:26:20;97753.50;;;9.71;93.31
15884;BME280;8040;50.254;10.960;2023-11-19T07:28:47;97715.25;;;9.51;93.10
15884;BME280;8040;50.254;10.960;2023-11-19T07:31:13;97711.25;;;9.48;92.79
15884;BME280;8040;50.254;10.960;2023-11-19T07:33:39;97710.88;;;9.41;94.15
15884;BME280;8040;50.254;10.960;2023-11-19T07:36:05;97754.19;;;9.77;94.33
15884;BME280;8040;50.254;10.960;2023-11-19T07:38:31;97711.44;;;9.52;94.02
15884;BME280;8040;50.254;10.960;2023-11-19T07:40:56;97749.66;;;9.86;93.99
15884;BME280;8040;50.254;10.960;2023-11-19T07:43:21;97741.94;;;9.79;93.87
15884;BME280;8040;50.254;10.960;2023-11-19T07:45:47;97727.84;;;9.69;94.29
15884;BME280;8040;50.254;10.960;2023-11-19T07:48:12;97756.28;;;9.80;93.71
15884;BME280;8040;50.254;10.960;2023-11-19T07:50:38;97750.41;;;9.78;93.82
15884;BME280;8040;50.254;10.960;2023-11-19T07:53:04;97761.88;;;9.97;93.65
15884;BME280;8040;50.254;10.960;2023-11-19T07:55:29;97730.63;;;9.77;93.46
15884;BME280;8040;50.254;10.960;2023-11-19T07:57:56;97725.75;;;9.88;93.23
15884;BME280;8040;50.254;10.960;2023-11-19T08:00:21;97716.53;;;9.89;93.60
15884;BME280;8040;50.254;10.960;2023-11-19T08:02:47;97692.22;;;9.75;93.85
15884;BME280;8040;50.254;10.960;2023-11-19T08:05:12;97740.66;;;10.12;94.13
15884;BME280;8040;50.254;10.960;2023-11-19T08:07:37;97723.69;;;10.07;94.22
15884;BME280;8040;50.254;10.960;2023-11-19T08:10:04;97722.97;;;10.15;94.65
15884;BME280;8040;50.254;10.960;2023-11-19T08:12:30;97697.41;;;10.07;94.97
15884;BME280;8040;50.254;10.960;2023-11-19T08:15:02;97694.22;;;10.05;94.51
15884;BME280;8040;50.254;10.960;2023-11-19T08:17:30;97696.97;;;10.14;95.00
15884;BME280;8040;50.254;10.960;2023-11-19T08:19:55;97750.78;;;10.51;95.43
15884;BME280;8040;50.254;10.960;2023-11-19T08:22:21;97737.53;;;10.49;95.35
15884;BME280;8040;50.254;10.960;2023-11-19T08:24:48;97707.31;;;10.34;95.47
15884;BME280;8040;50.254;10.960;2023-11-19T08:27:13;97707.66;;;10.41;95.45
15884;BME280;8040;50.254;10.960;2023-11-19T08:29:38;97745.44;;;10.68;95.48
15884;BME280;8040;50.254;10.960;2023-11-19T08:32:04;97728.47;;;10.54;95.78
15884;BME280;8040;50.254;10.960;2023-11-19T08:34:31;97720.97;;;10.59;96.89
15884;BME280;8040;50.254;10.960;2023-11-19T08:36:59;97703.75;;;10.55;97.79
15884;BME280;8040;50.254;10.960;2023-11-19T08:39:24;97738.69;;;10.96;98.47
15884;BME280;8040;50.254;10.960;2023-11-19T08:41:50;97737.31;;;11.07;99.31
15884;BME280;8040;50.254;10.960;2023-11-19T08:44:16;97730.63;;;11.13;99.45
15884;BME280;8040;50.254;10.960;2023-11-19T08:46:51;97694.66;;;11.07;99.84
15884;BME280;8040;50.254;10.960;2023-11-19T08:49:16;97726.00;;;11.30;99.78
15884;BME280;8040;50.254;10.960;2023-11-19T08:51:42;97755.94;;;11.56;99.61
15884;BME280;8040;50.254;10.960;2023-11-19T08:54:08;97750.19;;;11.49;99.45
15884;BME280;8040;50.254;10.960;2023-11-19T08:56:33;97692.81;;;11.25;98.90
15884;BME280;8040;50.254;10.960;2023-11-19T08:59:01;97709.75;;;11.39;99.02
15884;BME280;8040;50.254;10.960;2023-11-19T09:01:26;97682.75;;;11.34;99.22
15884;BME280;8040;50.254;10.960;2023-11-19T09:03:51;97690.44;;;11.49;99.34
15884;BME280;8040;50.254;10.960;2023-11-19T09:06:17;97741.28;;;11.91;98.78
15884;BME280;8040;50.254;10.960;2023-11-19T09:08:44;97731.06;;;11.88;98.39
15884;BME280;8040;50.254;10.960;2023-11-19T09:11:09;97700.53;;;11.65;98.18
15884;BME280;8040;50.254;10.960;2023-11-19T09:13:35;97737.13;;;11.93;98.44
15884;BME280;8040;50.254;10.960;2023-11-19T09:16:01;97758.88;;;12.02;98.53
15884;BME280;8040;50.254;10.960;2023-11-19T09:18:31;97704.69;;;11.71;98.52
15884;BME280;8040;50.254;10.960;2023-11-19T09:20:57;97694.28;;;11.65;98.31
15884;BME280;8040;50.254;10.960;2023-11-19T09:23:23;97752.97;;;11.91;98.80
15884;BME280;8040;50.254;10.960;2023-11-19T09:25:51;97768.94;;;12.18;98.98
15884;BME280;8040;50.254;10.960;2023-11-19T09:28:16;97709.16;;;11.93;98.99
15884;BME280;8040;50.254;10.960;2023-11-19T09:30:42;97744.44;;;12.27;99.12
15884;BME280;8040;50.254;10.960;2023-11-19T09:33:07;97726.69;;;12.29;98.31
15884;BME280;8040;50.254;10.960;2023-11-19T09:35:33;97759.41;;;12.67;98.57
15884;BME280;8040;50.254;10.960;2023-11-19T09:37:58;97697.06;;;12.45;97.82
15884;BME280;8040;50.254;10.960;2023-11-19T09:40:24;97743.53;;;12.77;97.76
15884;BME280;8040;50.254;10.960;2023-11-19T09:42:50;97763.84;;;12.97;97.32
15884;BME280;8040;50.254;10.960;2023-11-19T09:45:17;97717.00;;;12.74;96.88
15884;BME280;8040;50.254;10.960;2023-11-19T09:47:44;97710.88;;;12.77;96.38
15884;BME280;8040;50.254;10.960;2023-11-19T09:50:16;97732.44;;;12.99;95.28
15884;BME280;8040;50.254;10.960;2023-11-19T09:52:43;97754.16;;;13.16;95.24
15884;BME280;8040;50.254;10.960;2023-11-19T09:55:09;97684.75;;;12.85;94.33
15884;BME280;8040;50.254;10.960;2023-11-19T09:57:35;97749.94;;;13.19;93.67
15884;BME280;8040;50.254;10.960;2023-11-19T10:00:04;97739.72;;;13.16;93.28
15884;BME280;8040;50.254;10.960;2023-11-19T10:02:34;97722.44;;;13.12;93.25
15884;BME280;8040;50.254;10.960;2023-11-19T10:05:06;97743.84;;;13.22;92.86
15884;BME280;8040;50.254;10.960;2023-11-19T10:07:32;97718.66;;;13.04;92.84
15884;BME280;8040;50.254;10.960;2023-11-19T10:10:01;97726.44;;;13.14;93.43
15884;BME280;8040;50.254;10.960;2023-11-19T10:12:27;97684.41;;;12.95;93.26
15884;BME280;8040;50.254;10.960;2023-11-19T10:14:56;97706.78;;;13.09;92.61
15884;BME280;8040;50.254;10.960;2023-11-19T10:17:27;97688.03;;;13.07;92.93
15884;BME280;8040;50.254;10.960;2023-11-19T10:19:54;97724.13;;;13.25;93.26
15884;BME280;8040;50.254;10.960;2023-11-19T10:22:20;97678.44;;;13.01;92.79
15884;BME280;8040;50.254;10.960;2023-11-19T10:24:45;97675.13;;;12.96;92.58
15884;BME280;8040;50.254;10.960;2023-11-19T10:27:16;97672.56;;;12.91;92.33
15884;BME280;8040;50.254;10.960;2023-11-19T10:29:47;97697.50;;;13.01;92.47
15884;BME280;8040;50.254;10.960;2023-11-19T10:32:13;97727.34;;;13.27;92.85
15884;BME280;8040;50.254;10.960;2023-11-19T10:34:40;97695.75;;;13.05;92.43
15884;BME280;8040;50.254;10.960;2023-11-19T10:37:07;97735.66;;;13.30;92.09
15884;BME280;8040;50.254;10.960;2023-11-19T10:39:52;97666.91;;;13.04;91.50
15884;BME280;8040;50.254;10.960;2023-11-19T10:42:20;97703.47;;;13.24;91.24
15884;BME280;8040;50.254;10.960;2023-11-19T10:44:46;97724.03;;;13.42;91.05
15884;BME280;8040;50.254;10.960;2023-11-19T10:47:13;97730.28;;;13.42;90.69
15884;BME280;8040;50.254;10.960;2023-11-19T10:49:39;97715.84;;;13.42;90.54
15884;BME280;8040;50.254;10.960;2023-11-19T10:52:08;97722.72;;;13.48;90.44
15884;BME280;8040;50.254;10.960;2023-11-19T10:54:34;97721.56;;;13.49;90.43
15884;BME280;8040;50.254;10.960;2023-11-19T10:57:01;97721.72;;;13.52;89.89
15884;BME280;8040;50.254;10.960;2023-11-19T10:59:33;97700.84;;;13.56;89.81
15884;BME280;8040;50.254;10.960;2023-11-19T11:02:03;97715.50;;;13.72;89.26
15884;BME280;8040;50.254;10.960;2023-11-19T11:04:33;97683.13;;;13.71;89.18
15884;BME280;8040;50.254;10.960;2023-11-19T11:07:02;97675.44;;;13.85;88.45
15884;BME280;8040;50.254;10.960;2023-11-19T11:09:30;97685.16;;;13.94;87.23
15884;BME280;8040;50.254;10.960;2023-11-19T11:11:55;97698.38;;;14.04;85.80
15884;BME280;8040;50.254;10.960;2023-11-19T11:14:24;97649.94;;;13.69;85.47
15884;BME280;8040;50.254;10.960;2023-11-19T11:16:51;97686.63;;;13.92;85.33
15884;BME280;8040;50.254;10.960;2023-11-19T11:19:18;97658.47;;;13.67;85.11
15884;BME280;8040;50.254;10.960;2023-11-19T11:21:47;97655.84;;;13.71;84.46
15884;BME280;8040;50.254;10.960;2023-11-19T11:24:47;97671.59;;;13.86;83.67
15884;BME280;8040;50.254;10.960;2023-11-19T11:30:24;97696.78;;;14.03;81.45
15884;BME280;8040;50.254;10.960;2023-11-19T11:33:15;97691.78;;;14.05;81.51
15884;BME280;8040;50.254;10.960;2023-11-19T11:38:37;97661.66;;;14.02;78.52
15884;BME280;8040;50.254;10.960;2023-11-19T11:41:20;97678.16;;;14.26;78.57
15884;BME280;8040;50.254;10.960;2023-11-19T11:43:53;97639.84;;;14.02;78.46
15884;BME280;8040;50.254;10.960;2023-11-19T11:49:03;97653.72;;;14.09;77.41
15884;BME280;8040;50.254;10.960;2023-11-19T11:54:31;97653.66;;;14.17;77.00
15884;BME280;8040;50.254;10.960;2023-11-19T11:57:02;97655.81;;;14.12;75.58
15884;BME280;8040;50.254;10.960;2023-11-19T11:59:45;97636.19;;;13.98;73.58
15884;BME280;8040;50.254;10.960;2023-11-19T12:02:21;97678.84;;;14.23;72.08
15884;BME280;8040;50.254;10.960;2023-11-19T12:04:49;97634.50;;;13.73;71.35
15884;BME280;8040;50.254;10.960;2023-11-19T12:07:18;97688.47;;;14.00;71.51
15884;BME280;8040;50.254;10.960;2023-11-19T12:10:12;97691.34;;;14.03;71.05
15884;BME280;8040;50.254;10.960;2023-11-19T12:12:39;97699.53;;;14.03;70.34
15884;BME280;8040;50.254;10.960;2023-11-19T12:15:09;97686.47;;;14.09;69.69
15884;BME280;8040;50.254;10.960;2023-11-19T12:17:50;97624.16;;;13.66;68.41
15884;BME280;8040;50.254;10.960;2023-11-19T12:20:18;97653.25;;;13.74;64.59
15884;BME280;8040;50.254;10.960;2023-11-19T12:22:45;97610.88;;;13.44;64.92
15884;BME280;8040;50.254;10.960;2023-11-19T12:25:12;97629.69;;;13.58;64.97
15884;BME280;8040;50.254;10.960;2023-11-19T12:27:43;97642.03;;;13.55;63.05
15884;BME280;8040;50.254;10.960;2023-11-19T12:30:09;97670.06;;;13.76;64.16
15884;BME280;8040;50.254;10.960;2023-11-19T12:32:42;97671.28;;;13.67;64.12
15884;BME280;8040;50.254;10.960;2023-11-19T12:35:09;97670.63;;;13.70;64.62
15884;BME280;8040;50.254;10.960;2023-11-19T12:37:46;97675.06;;;13.74;63.74
15884;BME280;8040;50.254;10.960;2023-11-19T12:40:16;97665.22;;;13.82;64.12
15884;BME280;8040;50.254;10.960;2023-11-19T12:42:43;97630.06;;;13.68;63.61
15884;BME280;8040;50.254;10.960;2023-11-19T12:45:09;97674.53;;;14.01;62.80
15884;BME280;8040;50.254;10.960;2023-11-19T12:47:38;97607.25;;;13.73;62.60
15884;BME280;8040;50.254;10.960;2023-11-19T12:50:05;97664.66;;;14.09;62.06
15884;BME280;8040;50.254;10.960;2023-11-19T12:52:32;97603.53;;;13.77;62.06
15884;BME280;8040;50.254;10.960;2023-11-19T12:54:57;97593.63;;;13.73;61.64
15884;BME280;8040;50.254;10.960;2023-11-19T12:57:41;97661.06;;;14.17;61.38
15884;BME280;8040;50.254;10.960;2023-11-19T13:00:08;97629.41;;;14.04;62.42
15884;BME280;8040;50.254;10.960;2023-11-19T13:08:01;97651.00;;;14.29;61.31
15884;BME280;8040;50.254;10.960;2023-11-19T13:10:28;97640.09;;;14.09;61.59
15884;BME280;8040;50.254;10.960;2023-11-19T13:15:39;97625.13;;;14.15;60.39
15884;BME280;8040;50.254;10.960;2023-11-19T13:18:05;97636.03;;;14.15;61.30
15884;BME280;8040;50.254;10.960;2023-11-19T13:20:32;97641.56;;;14.39;61.11
15884;BME280;8040;50.254;10.960;2023-11-19T13:23:03;97642.72;;;14.38;59.96
15884;BME280;8040;50.254;10.960;2023-11-19T13:25:29;97618.34;;;14.21;59.54
15884;BME280;8040;50.254;10.960;2023-11-19T13:27:55;97591.69;;;14.06;59.77
15884;BME280;8040;50.254;10.960;2023-11-19T13:30:23;97592.16;;;14.08;58.66
15884;BME280;8040;50.254;10.960;2023-11-19T13:32:49;97640.53;;;14.31;56.89
15884;BME280;8040;50.254;10.960;2023-11-19T13:35:15;97624.22;;;14.11;57.36